Legend Of The Seas — C6SL5 — position and weather

sailwx.info

Track history (hours):
 
Tides and Currents Weather Stations Pressure Air Temp Water Temp Dewpoint Dewpoint Depression Visibility Wind Speed Wind Dir Waves Ship Positions

Legend Of The Seas

Operator: Royal Caribbean Cruises Ltd

Last reported at 2014-Jul-31 06:31 UTC. Time now 2014-Jul-31 09:23 UTC.
Position N 59°57' E 030°11'.

Type: Passenger vessel. MMSI: 311378000.

Date/timePositionNaut miles runAvg speedWind from/ knotsBaromVisibWave heightAir tempDewpointWater temp
2014-Jul-31 06:31N 59°57' E 030°11'0 0.0
2014-Jul-31 03:25N 59°57' E 030°11'0 0.0
2014-Jul-31 01:25N 59°57' E 030°11'0 0.0
2014-Jul-31 00:31N 59°57' E 030°11'0 0.0
2014-Jul-30 23:31N 59°57' E 030°11'0 0.0
2014-Jul-30 22:31N 59°57' E 030°11'0 0.0
2014-Jul-30 21:19N 59°57' E 030°11'0 0.0
2014-Jul-30 18:31N 59°57' E 030°11'0 0.0
2014-Jul-30 07:28N 59°57' E 030°11'0 0.0
2014-Jul-30 02:33N 59°57' E 030°11'6 5.9
2014-Jul-30 01:33N 59°55' E 030°00'7414.8
2014-Jul-29 20:33N 60°07' E 027°34'1918.9
2014-Jul-29 19:34N 59°58' E 027°00'1919.0
2014-Jul-29 18:33N 59°57' E 026°23'2319.6
2014-Jul-29 17:22N 59°51' E 025°38'1619.3
2014-Jul-29 16:33N 59°57' E 025°08'1413.9
2014-Jul-29 15:33N 60°09' E 024°54'0 0.5
2014-Jul-29 14:33N 60°09' E 024°55'0 0.0
2014-Jul-29 13:33N 60°09' E 024°55'0 0.0
2014-Jul-29 12:33N 60°09' E 024°55'0 0.0
2014-Jul-29 11:33N 60°09' E 024°55'0 0.0
2014-Jul-29 10:33N 60°09' E 024°55'0 0.0
2014-Jul-29 09:33N 60°09' E 024°55'0 0.0
2014-Jul-29 08:32N 60°09' E 024°55'0 0.0
2014-Jul-29 07:32N 60°09' E 024°55'2 2.5
2014-Jul-29 06:34N 60°07' E 024°54'2114.7
2014-Jul-29 05:09N 59°46' E 024°47'1219.8
2014-Jul-29 04:34N 59°44' E 024°24'1717.5
2014-Jul-29 03:33N 59°39' E 023°51'1717.0
2014-Jul-29 02:34N 59°34' E 023°19'1717.1
2014-Jul-29 01:32N 59°28' E 022°46'1717.1
2014-Jul-29 00:33N 59°23' E 022°15'1717.5
2014-Jul-28 23:34N 59°24' E 021°41'3517.3
2014-Jul-28 21:32N 59°25' E 020°32'6410.6
2014-Jul-28 15:31N 59°23' E 018°27'9 8.9
2014-Jul-28 14:33N 59°20' E 018°11'2 1.6
2014-Jul-28 13:31N 59°21' E 018°08'0 0.0
2014-Jul-28 12:31N 59°21' E 018°08'0 0.0
2014-Jul-28 11:31N 59°21' E 018°08'0 0.0
2014-Jul-28 10:31N 59°21' E 018°08'0 0.0
2014-Jul-28 09:31N 59°21' E 018°08'0 0.0
2014-Jul-28 08:28N 59°21' E 018°08'0 0.0
2014-Jul-28 07:31N 59°21' E 018°08'0 0.0
2014-Jul-28 06:31N 59°21' E 018°08'0 0.0
2014-Jul-28 05:31N 59°21' E 018°08'0 0.0
2014-Jul-28 04:31N 59°21' E 018°08'0 0.0
2014-Jul-28 03:31N 59°21' E 018°08'0 0.0
2014-Jul-28 02:31N 59°21' E 018°08'0 0.0
2014-Jul-28 01:31N 59°21' E 018°08'0 0.0
2014-Jul-28 00:31N 59°21' E 018°08'0 0.0
2014-Jul-27 23:31N 59°21' E 018°08'0 0.0
2014-Jul-27 22:31N 59°21' E 018°08'0 0.0
2014-Jul-27 21:31N 59°21' E 018°08'0 0.0
2014-Jul-27 20:31N 59°21' E 018°08'0 0.0
2014-Jul-27 19:31N 59°21' E 018°08'0 0.0
2014-Jul-27 18:31N 59°21' E 018°08'0 0.0
2014-Jul-27 17:31N 59°21' E 018°08'0 0.0
2014-Jul-27 16:28N 59°21' E 018°08'0 0.0
2014-Jul-27 15:31N 59°21' E 018°08'0 0.0
2014-Jul-27 14:31N 59°21' E 018°08'0 0.0
2014-Jul-27 13:31N 59°21' E 018°08'0 0.0
2014-Jul-27 12:31N 59°21' E 018°08'0 0.0
2014-Jul-27 11:31N 59°21' E 018°08'0 0.0
2014-Jul-27 10:31N 59°21' E 018°08'0 0.0
2014-Jul-27 09:31N 59°21' E 018°08'0 0.0
2014-Jul-27 08:31N 59°21' E 018°08'0 0.0
2014-Jul-27 07:31N 59°21' E 018°08'0 0.0
2014-Jul-27 06:31N 59°21' E 018°08'0 0.1
2014-Jul-27 05:33N 59°21' E 018°08'7 6.8
2014-Jul-27 04:33N 59°23' E 018°21'9 7.0
2014-Jul-27 03:12N 59°31' E 018°30'710.7
2014-Jul-27 02:33N 59°35' E 018°42'1211.7
2014-Jul-27 01:30N 59°42' E 019°02'1314.2
2014-Jul-27 00:33N 59°47' E 019°26'7 6.8
2014-Jul-26 23:33N 59°48' E 019°39'7 7.5
2014-Jul-26 22:33N 59°44' E 019°52'8 7.7
2014-Jul-26 21:33N 59°39' E 020°03'15 7.4
2014-Jul-26 19:29N 59°24' E 020°12'56 7.8
2014-Jul-26 12:18N 58°33' E 020°56'14 7.9
2014-Jul-26 10:31N 58°21' E 021°09'8 7.8
2014-Jul-26 09:33N 58°14' E 021°16'9 7.8
2014-Jul-26 08:26N 58°06' E 021°23'8 0.2
2014-Jul-25 00:05N 58°13' E 021°16'1919.8
2014-Jul-24 23:09N 58°32' E 021°08'1118.8
2014-Jul-24 22:33N 58°43' E 021°08'2020.1
2014-Jul-24 21:33N 59°01' E 021°24'2020.3
2014-Jul-24 20:33N 59°15' E 021°52'2019.9
2014-Jul-24 19:32N 59°20' E 022°31'2020.3
2014-Jul-24 18:32N 59°23' E 023°10'2020.2
2014-Jul-24 17:33N 59°28' E 023°48'2020.3
2014-Jul-24 16:33N 59°30' E 024°28'10 9.5
2014-Jul-24 15:34N 59°27' E 024°46'0 0.3
2014-Jul-24 14:28N 59°27' E 024°46'0 0.0
2014-Jul-24 13:31N 59°27' E 024°46'0 0.0
2014-Jul-24 12:28N 59°27' E 024°46'0 0.0
2014-Jul-24 11:31N 59°27' E 024°46'0 0.0
2014-Jul-24 10:28N 59°27' E 024°46'0 0.0
2014-Jul-24 09:31N 59°27' E 024°46'0 0.0
2014-Jul-24 07:31N 59°27' E 024°46'0 0.0
2014-Jul-24 05:22N 59°27' E 024°46'4 4.6
2014-Jul-24 04:24N 59°31' E 024°43'1313.0
2014-Jul-24 03:23N 59°44' E 024°38'2513.5
2014-Jul-24 01:33N 59°53' E 025°25'1414.5
2014-Jul-24 00:34N 59°55' E 025°53'1414.4
2014-Jul-23 23:34N 59°59' E 026°20'1413.8
2014-Jul-23 22:34N 60°00' E 026°48'1313.4
2014-Jul-23 21:34N 60°03' E 027°14'8413.1
2014-Jul-23 15:07N 59°56' E 030°02'5 8.3
2014-Jul-23 14:33N 59°57' E 030°11'0 0.0
2014-Jul-22 04:32N 59°57' E 030°11'7 7.2
2014-Jul-22 03:33N 59°56' E 029°57'6713.5
2014-Jul-21 22:33N 60°09' E 027°45'1515.4
2014-Jul-21 21:33N 60°02' E 027°18'1514.8
2014-Jul-21 20:33N 59°59' E 026°49'415.7
2014-Jul-21 20:18N 59°60' E 026°41'1215.6
2014-Jul-21 19:33N 59°57' E 026°19'1515.5
2014-Jul-21 18:33N 59°53' E 025°49'1514.7
2014-Jul-21 17:32N 59°54' E 025°20'1514.9
2014-Jul-21 16:31N 60°02' E 024°54'7 6.8
2014-Jul-21 15:32N 60°09' E 024°55'0 0.0
2014-Jul-21 14:32N 60°09' E 024°55'0 0.0
2014-Jul-21 13:32N 60°09' E 024°55'0 0.0
2014-Jul-21 12:32N 60°09' E 024°55'0 0.0
2014-Jul-21 11:32N 60°09' E 024°55'0 0.0
2014-Jul-21 10:29N 60°09' E 024°55'0 0.0
2014-Jul-21 09:32N 60°09' E 024°55'0 0.0
2014-Jul-21 08:29N 60°09' E 024°55'4 3.9
2014-Jul-21 07:33N 60°05' E 024°54'1413.3
2014-Jul-21 06:32N 59°52' E 024°54'  
Track history (hours):
 
Tides and Currents Weather Stations Pressure Air Temp Water Temp Dewpoint Dewpoint Depression Visibility Wind Speed Wind Dir Waves Ship Positions

Legend Of The Seas

Operator: Royal Caribbean Cruises Ltd

Last reported at 2014-Jul-31 06:31 UTC. Time now 2014-Jul-31 09:23 UTC.
Position N 59°57' E 030°11'.

Type: Passenger vessel. MMSI: 311378000.

Date/timePositionNaut miles runAvg speedWind from/ knotsBaromVisibWave heightAir tempDewpointWater temp
2014-Jul-31 06:31N 59°57' E 030°11'0 0.0
2014-Jul-31 03:25N 59°57' E 030°11'0 0.0
2014-Jul-31 01:25N 59°57' E 030°11'0 0.0
2014-Jul-31 00:31N 59°57' E 030°11'0 0.0
2014-Jul-30 23:31N 59°57' E 030°11'0 0.0
2014-Jul-30 22:31N 59°57' E 030°11'0 0.0
2014-Jul-30 21:19N 59°57' E 030°11'0 0.0
2014-Jul-30 18:31N 59°57' E 030°11'0 0.0
2014-Jul-30 07:28N 59°57' E 030°11'0 0.0
2014-Jul-30 02:33N 59°57' E 030°11'6 5.9
2014-Jul-30 01:33N 59°55' E 030°00'7414.8
2014-Jul-29 20:33N 60°07' E 027°34'1918.9
2014-Jul-29 19:34N 59°58' E 027°00'1919.0
2014-Jul-29 18:33N 59°57' E 026°23'2319.6
2014-Jul-29 17:22N 59°51' E 025°38'1619.3
2014-Jul-29 16:33N 59°57' E 025°08'1413.9
2014-Jul-29 15:33N 60°09' E 024°54'0 0.5
2014-Jul-29 14:33N 60°09' E 024°55'0 0.0
2014-Jul-29 13:33N 60°09' E 024°55'0 0.0
2014-Jul-29 12:33N 60°09' E 024°55'0 0.0
2014-Jul-29 11:33N 60°09' E 024°55'0 0.0
2014-Jul-29 10:33N 60°09' E 024°55'0 0.0
2014-Jul-29 09:33N 60°09' E 024°55'0 0.0
2014-Jul-29 08:32N 60°09' E 024°55'0 0.0
2014-Jul-29 07:32N 60°09' E 024°55'2 2.5
2014-Jul-29 06:34N 60°07' E 024°54'2114.7
2014-Jul-29 05:09N 59°46' E 024°47'1219.8
2014-Jul-29 04:34N 59°44' E 024°24'1717.5
2014-Jul-29 03:33N 59°39' E 023°51'1717.0
2014-Jul-29 02:34N 59°34' E 023°19'1717.1
2014-Jul-29 01:32N 59°28' E 022°46'1717.1
2014-Jul-29 00:33N 59°23' E 022°15'1717.5
2014-Jul-28 23:34N 59°24' E 021°41'3517.3
2014-Jul-28 21:32N 59°25' E 020°32'6410.6
2014-Jul-28 15:31N 59°23' E 018°27'9 8.9
2014-Jul-28 14:33N 59°20' E 018°11'2 1.6
2014-Jul-28 13:31N 59°21' E 018°08'0 0.0
2014-Jul-28 12:31N 59°21' E 018°08'0 0.0
2014-Jul-28 11:31N 59°21' E 018°08'0 0.0
2014-Jul-28 10:31N 59°21' E 018°08'0 0.0
2014-Jul-28 09:31N 59°21' E 018°08'0 0.0
2014-Jul-28 08:28N 59°21' E 018°08'0 0.0
2014-Jul-28 07:31N 59°21' E 018°08'0 0.0
2014-Jul-28 06:31N 59°21' E 018°08'0 0.0
2014-Jul-28 05:31N 59°21' E 018°08'0 0.0
2014-Jul-28 04:31N 59°21' E 018°08'0 0.0
2014-Jul-28 03:31N 59°21' E 018°08'0 0.0
2014-Jul-28 02:31N 59°21' E 018°08'0 0.0
2014-Jul-28 01:31N 59°21' E 018°08'0 0.0
2014-Jul-28 00:31N 59°21' E 018°08'0 0.0
2014-Jul-27 23:31N 59°21' E 018°08'0 0.0
2014-Jul-27 22:31N 59°21' E 018°08'0 0.0
2014-Jul-27 21:31N 59°21' E 018°08'0 0.0
2014-Jul-27 20:31N 59°21' E 018°08'0 0.0
2014-Jul-27 19:31N 59°21' E 018°08'0 0.0
2014-Jul-27 18:31N 59°21' E 018°08'0 0.0
2014-Jul-27 17:31N 59°21' E 018°08'0 0.0
2014-Jul-27 16:28N 59°21' E 018°08'0 0.0
2014-Jul-27 15:31N 59°21' E 018°08'0 0.0
2014-Jul-27 14:31N 59°21' E 018°08'0 0.0
2014-Jul-27 13:31N 59°21' E 018°08'0 0.0
2014-Jul-27 12:31N 59°21' E 018°08'0 0.0
2014-Jul-27 11:31N 59°21' E 018°08'0 0.0
2014-Jul-27 10:31N 59°21' E 018°08'0 0.0
2014-Jul-27 09:31N 59°21' E 018°08'0 0.0
2014-Jul-27 08:31N 59°21' E 018°08'0 0.0
2014-Jul-27 07:31N 59°21' E 018°08'0 0.0
2014-Jul-27 06:31N 59°21' E 018°08'0 0.1
2014-Jul-27 05:33N 59°21' E 018°08'7 6.8
2014-Jul-27 04:33N 59°23' E 018°21'9 7.0
2014-Jul-27 03:12N 59°31' E 018°30'710.7
2014-Jul-27 02:33N 59°35' E 018°42'1211.7
2014-Jul-27 01:30N 59°42' E 019°02'1314.2
2014-Jul-27 00:33N 59°47' E 019°26'7 6.8
2014-Jul-26 23:33N 59°48' E 019°39'7 7.5
2014-Jul-26 22:33N 59°44' E 019°52'8 7.7
2014-Jul-26 21:33N 59°39' E 020°03'15 7.4
2014-Jul-26 19:29N 59°24' E 020°12'56 7.8
2014-Jul-26 12:18N 58°33' E 020°56'14 7.9
2014-Jul-26 10:31N 58°21' E 021°09'8 7.8
2014-Jul-26 09:33N 58°14' E 021°16'9 7.8
2014-Jul-26 08:26N 58°06' E 021°23'8 0.2
2014-Jul-25 00:05N 58°13' E 021°16'1919.8
2014-Jul-24 23:09N 58°32' E 021°08'1118.8
2014-Jul-24 22:33N 58°43' E 021°08'2020.1
2014-Jul-24 21:33N 59°01' E 021°24'2020.3
2014-Jul-24 20:33N 59°15' E 021°52'2019.9
2014-Jul-24 19:32N 59°20' E 022°31'2020.3
2014-Jul-24 18:32N 59°23' E 023°10'2020.2
2014-Jul-24 17:33N 59°28' E 023°48'2020.3
2014-Jul-24 16:33N 59°30' E 024°28'10 9.5
2014-Jul-24 15:34N 59°27' E 024°46'0 0.3
2014-Jul-24 14:28N 59°27' E 024°46'0 0.0
2014-Jul-24 13:31N 59°27' E 024°46'0 0.0
2014-Jul-24 12:28N 59°27' E 024°46'0 0.0
2014-Jul-24 11:31N 59°27' E 024°46'0 0.0
2014-Jul-24 10:28N 59°27' E 024°46'0 0.0
2014-Jul-24 09:31N 59°27' E 024°46'0 0.0
2014-Jul-24 07:31N 59°27' E 024°46'0 0.0
2014-Jul-24 05:22N 59°27' E 024°46'4 4.6
2014-Jul-24 04:24N 59°31' E 024°43'1313.0
2014-Jul-24 03:23N 59°44' E 024°38'2513.5
2014-Jul-24 01:33N 59°53' E 025°25'1414.5
2014-Jul-24 00:34N 59°55' E 025°53'1414.4
2014-Jul-23 23:34N 59°59' E 026°20'1413.8
2014-Jul-23 22:34N 60°00' E 026°48'1313.4
2014-Jul-23 21:34N 60°03' E 027°14'8413.1
2014-Jul-23 15:07N 59°56' E 030°02'5 8.3
2014-Jul-23 14:33N 59°57' E 030°11'0 0.0
2014-Jul-22 04:32N 59°57' E 030°11'7 7.2
2014-Jul-22 03:33N 59°56' E 029°57'6713.5
2014-Jul-21 22:33N 60°09' E 027°45'1515.4
2014-Jul-21 21:33N 60°02' E 027°18'1514.8
2014-Jul-21 20:33N 59°59' E 026°49'415.7
2014-Jul-21 20:18N 59°60' E 026°41'1215.6
2014-Jul-21 19:33N 59°57' E 026°19'1515.5
2014-Jul-21 18:33N 59°53' E 025°49'1514.7
2014-Jul-21 17:32N 59°54' E 025°20'1514.9
2014-Jul-21 16:31N 60°02' E 024°54'7 6.8
2014-Jul-21 15:32N 60°09' E 024°55'0 0.0
2014-Jul-21 14:32N 60°09' E 024°55'0 0.0
2014-Jul-21 13:32N 60°09' E 024°55'0 0.0
2014-Jul-21 12:32N 60°09' E 024°55'0 0.0
2014-Jul-21 11:32N 60°09' E 024°55'0 0.0
2014-Jul-21 10:29N 60°09' E 024°55'0 0.0
2014-Jul-21 09:32N 60°09' E 024°55'0 0.0
2014-Jul-21 08:29N 60°09' E 024°55'4 3.9
2014-Jul-21 07:33N 60°05' E 024°54'1413.3
2014-Jul-21 06:32N 59°52' E 024°54'  

Dump ship's entire track history